Time;durP1;ratioP1;P1;durP2;ratioP2;P2;SDS_P1;SDS_P2;PMS_P1;PMS_P2;Temp;Humidity;BMP_temperature;BMP_pressure;BME280_temperature;BME280_humidity;BME280_pressure;Samples;Min_cycle;Max_cycle;Signal;HPM_P1;HPM_P2
2022/06/04 00:00:53;;;;;;;10.93;5.88;;;12.50;99.90;;;;;;5057111;28;20035;-72
2022/06/04 00:03:19;;;;;;;11.80;5.70;;;12.40;99.90;;;;;;5058991;28;20096;-71
2022/06/04 00:05:48;;;;;;;8.77;6.25;;;12.30;99.90;;;;;;5058324;28;20114;-71
2022/06/04 00:08:14;;;;;;;13.18;6.47;;;12.30;99.90;;;;;;5055252;28;20021;-71
2022/06/04 00:16:18;;;;;;;11.20;6.55;;;12.30;99.90;;;;;;5054620;28;20102;-72
2022/06/04 00:18:44;;;;;;;10.20;7.03;;;12.30;99.90;;;;;;5057482;28;20020;-71
2022/06/04 00:21:11;;;;;;;13.27;6.65;;;12.20;99.90;;;;;;5059643;28;20032;-71
2022/06/04 00:23:37;;;;;;;8.73;7.22;;;12.20;99.90;;;;;;5057020;28;20486;-72
2022/06/04 00:26:07;;;;;;;9.30;6.97;;;12.10;99.90;;;;;;5039306;28;20067;-71
2022/06/04 00:28:33;;;;;;;11.15;7.03;;;12.10;99.90;;;;;;5056739;28;20510;-72
2022/06/04 00:30:59;;;;;;;11.88;7.47;;;12.10;99.90;;;;;;5057508;28;20439;-72
2022/06/04 00:33:27;;;;;;;19.80;8.15;;;12.10;99.90;;;;;;5058271;28;20025;-72
2022/06/04 00:35:56;;;;;;;12.68;8.45;;;12.00;99.90;;;;;;5039947;28;20028;-71
2022/06/04 00:38:24;;;;;;;11.18;7.15;;;12.00;99.90;;;;;;5039539;28;20070;-71
2022/06/04 00:41:03;;;;;;;15.98;8.32;;;12.00;99.90;;;;;;5058489;28;20385;-71
2022/06/04 00:43:32;;;;;;;11.48;7.78;;;12.00;99.90;;;;;;5054099;28;20575;-71
2022/06/04 00:46:20;;;;;;;12.98;7.32;;;12.00;99.90;;;;;;5054303;28;20028;-71
2022/06/04 00:48:46;;;;;;;10.93;8.35;;;11.90;99.90;;;;;;5056936;28;20027;-71
2022/06/04 00:51:13;;;;;;;15.43;8.70;;;11.90;99.90;;;;;;5055792;28;20444;-71
2022/06/04 00:53:41;;;;;;;15.50;8.52;;;11.90;99.90;;;;;;5055444;28;20106;-72
2022/06/04 00:56:21;;;;;;;14.10;8.68;;;11.80;99.90;;;;;;5057196;28;20047;-71
2022/06/04 00:59:05;;;;;;;12.05;7.72;;;11.80;99.90;;;;;;5040072;28;20029;-68
2022/06/04 01:02:02;;;;;;;14.23;8.93;;;11.80;99.90;;;;;;5038545;28;20021;-71
2022/06/04 01:07:41;;;;;;;13.02;9.23;;;11.80;99.90;;;;;;5058416;28;20035;-70
2022/06/04 01:10:45;;;;;;;17.13;8.73;;;11.80;99.90;;;;;;5058250;28;20013;-70
2022/06/04 01:13:38;;;;;;;16.08;7.85;;;11.80;99.90;;;;;;5040090;28;20516;-70
2022/06/04 01:16:18;;;;;;;16.10;9.40;;;11.80;99.90;;;;;;5057063;28;20068;-70
2022/06/04 01:18:55;;;;;;;16.38;9.15;;;11.80;99.90;;;;;;5054880;28;20026;-70
2022/06/04 01:22:06;;;;;;;10.65;8.63;;;11.70;99.90;;;;;;5055649;28;20021;-70
2022/06/04 01:24:44;;;;;;;13.07;9.53;;;11.60;99.90;;;;;;5013132;28;20083;-71
2022/06/04 01:27:45;;;;;;;14.15;9.90;;;11.60;99.90;;;;;;5057470;28;20040;-70
2022/06/04 01:30:21;;;;;;;21.60;9.75;;;11.60;99.90;;;;;;5055745;28;20033;-69
2022/06/04 01:33:02;;;;;;;16.05;9.65;;;11.60;99.90;;;;;;5046191;28;20034;-72
2022/06/04 01:35:28;;;;;;;21.33;9.60;;;11.60;99.90;;;;;;5057295;28;20031;-74
2022/06/04 01:38:14;;;;;;;17.85;9.63;;;11.50;99.90;;;;;;5039654;28;20093;-74
2022/06/04 01:41:03;;;;;;;18.25;9.63;;;11.50;99.90;;;;;;5040620;28;20064;-73
2022/06/04 01:43:31;;;;;;;16.92;10.75;;;11.50;99.90;;;;;;5058949;28;20033;-72
2022/06/04 01:46:02;;;;;;;14.70;10.68;;;11.40;99.90;;;;;;5041024;28;20059;-73
2022/06/04 01:48:31;;;;;;;17.17;10.32;;;11.40;99.90;;;;;;5058681;28;20030;-74
2022/06/04 01:50:59;;;;;;;14.45;10.05;;;11.40;99.90;;;;;;5057801;28;20033;-73
2022/06/04 01:53:34;;;;;;;16.63;9.73;;;11.30;99.90;;;;;;5058288;28;20021;-73
2022/06/04 01:56:12;;;;;;;22.80;11.07;;;11.30;99.90;;;;;;5044297;28;20497;-73
2022/06/04 01:58:45;;;;;;;17.27;10.48;;;11.20;99.90;;;;;;5062016;28;20029;-73
2022/06/04 02:01:15;;;;;;;17.38;10.85;;;11.20;99.90;;;;;;5042677;28;20027;-73
2022/06/04 02:03:47;;;;;;;17.92;10.93;;;11.20;99.90;;;;;;5061425;28;20035;-73
2022/06/04 02:06:30;;;;;;;20.05;11.73;;;11.20;99.90;;;;;;5042719;28;20489;-74
2022/06/04 02:09:04;;;;;;;18.23;11.50;;;11.20;99.90;;;;;;5059477;28;20089;-73
2022/06/04 02:11:30;;;;;;;17.67;10.73;;;11.20;99.90;;;;;;5058152;28;20025;-72
2022/06/04 02:14:03;;;;;;;21.00;11.35;;;11.10;99.90;;;;;;5057352;28;20048;-72
2022/06/04 02:16:32;;;;;;;17.50;10.65;;;11.10;99.90;;;;;;5058268;28;20140;-73
2022/06/04 02:18:59;;;;;;;17.80;11.18;;;11.10;99.90;;;;;;5058681;28;20025;-73
2022/06/04 02:21:27;;;;;;;20.75;11.43;;;11.00;99.90;;;;;;5041431;28;20036;-72
2022/06/04 02:23:55;;;;;;;18.10;12.15;;;11.00;99.90;;;;;;5058985;28;20390;-72
2022/06/04 02:26:21;;;;;;;24.10;13.77;;;11.00;99.90;;;;;;5040992;28;20025;-73
2022/06/04 02:28:47;;;;;;;23.05;11.68;;;10.90;99.90;;;;;;5054617;28;20371;-73
2022/06/04 02:32:01;;;;;;;20.38;12.98;;;10.90;99.90;;;;;;5050873;28;20044;-72
2022/06/04 02:34:47;;;;;;;22.33;13.18;;;10.90;99.90;;;;;;5031959;28;20033;-72
2022/06/04 02:37:19;;;;;;;23.52;12.77;;;10.90;99.90;;;;;;5041041;28;20029;-72
2022/06/04 02:40:02;;;;;;;26.45;12.88;;;10.90;99.90;;;;;;5024185;28;20033;-73
2022/06/04 02:42:45;;;;;;;23.45;13.15;;;10.90;99.90;;;;;;5043156;28;20029;-72
2022/06/04 02:45:11;;;;;;;23.00;13.68;;;10.80;99.90;;;;;;5036841;28;20140;-73
2022/06/04 02:47:46;;;;;;;22.48;14.70;;;10.80;99.90;;;;;;5021364;28;20030;-72
2022/06/04 02:50:15;;;;;;;27.83;14.77;;;10.80;99.90;;;;;;5032305;28;20025;-73
2022/06/04 02:52:42;;;;;;;23.20;14.00;;;10.80;99.90;;;;;;5042471;28;20032;-73
2022/06/04 02:55:21;;;;;;;26.80;13.77;;;10.70;99.90;;;;;;5039638;28;20022;-73
2022/06/04 02:57:50;;;;;;;28.38;15.13;;;10.70;99.90;;;;;;5039426;28;20025;-73
2022/06/04 03:00:20;;;;;;;29.50;14.27;;;10.70;99.90;;;;;;5039894;28;20041;-73
2022/06/04 03:02:46;;;;;;;25.52;14.27;;;10.80;99.90;;;;;;5021172;28;20099;-73
2022/06/04 03:05:15;;;;;;;21.95;14.35;;;10.70;99.90;;;;;;5022060;28;20029;-73
2022/06/04 03:07:44;;;;;;;26.05;14.85;;;10.70;99.90;;;;;;5022538;28;20022;-73
2022/06/04 03:10:19;;;;;;;30.45;15.43;;;10.60;99.90;;;;;;5040429;28;20025;-73
2022/06/04 03:12:47;;;;;;;25.88;14.57;;;10.60;99.90;;;;;;5022021;28;20025;-72
2022/06/04 03:15:13;;;;;;;26.90;15.68;;;10.50;99.90;;;;;;5040373;28;20544;-73
2022/06/04 03:17:44;;;;;;;25.40;14.85;;;10.50;99.90;;;;;;5022010;28;20021;-74
2022/06/04 03:20:11;;;;;;;34.03;16.90;;;10.60;99.90;;;;;;5039417;28;20017;-73
2022/06/04 03:22:38;;;;;;;27.08;14.27;;;10.50;99.90;;;;;;5038044;28;20075;-72
2022/06/04 03:25:04;;;;;;;24.85;15.02;;;10.50;99.90;;;;;;5020297;28;20426;-72
2022/06/04 03:27:30;;;;;;;25.85;15.20;;;10.50;99.90;;;;;;5039606;28;20081;-73
2022/06/04 03:29:56;;;;;;;22.70;15.20;;;10.50;99.90;;;;;;5037502;28;20128;-72
2022/06/04 03:32:22;;;;;;;28.27;15.73;;;10.40;99.90;;;;;;5050656;28;20097;-73
2022/06/04 03:34:48;;;;;;;29.17;15.23;;;10.40;99.90;;;;;;5034396;28;20032;-73
2022/06/04 03:37:14;;;;;;;23.95;14.65;;;10.50;99.90;;;;;;5033187;28;20017;-74
2022/06/04 03:39:40;;;;;;;25.15;15.48;;;10.50;99.90;;;;;;5051180;28;20064;-73
2022/06/04 03:42:06;;;;;;;32.92;16.45;;;10.50;99.90;;;;;;5029343;28;20022;-74
2022/06/04 03:44:32;;;;;;;25.80;15.43;;;10.50;99.90;;;;;;5022056;28;20060;-73
2022/06/04 03:46:57;;;;;;;31.05;16.77;;;10.50;99.90;;;;;;5020826;28;20029;-73
2022/06/04 03:49:23;;;;;;;25.85;16.05;;;10.50;99.90;;;;;;5038724;28;20025;-73
2022/06/04 03:51:49;;;;;;;29.05;15.98;;;10.50;99.90;;;;;;5038448;28;20029;-72
2022/06/04 03:54:14;;;;;;;31.88;16.63;;;10.50;99.90;;;;;;5039279;28;20097;-72
2022/06/04 03:56:40;;;;;;;28.02;15.55;;;10.50;99.90;;;;;;5021780;28;20469;-73
2022/06/04 03:59:06;;;;;;;28.35;14.70;;;10.50;99.90;;;;;;5039457;28;20462;-73
2022/06/04 04:01:31;;;;;;;33.92;15.82;;;10.60;99.90;;;;;;5040673;28;20040;-73
2022/06/04 04:03:59;;;;;;;25.50;15.23;;;10.60;99.90;;;;;;5040435;28;20048;-73
2022/06/04 04:06:30;;;;;;;24.23;15.10;;;10.60;99.90;;;;;;5021338;28;20052;-73
2022/06/04 04:08:57;;;;;;;27.67;15.93;;;10.70;99.90;;;;;;5038108;28;20056;-71
2022/06/04 04:11:25;;;;;;;27.73;15.60;;;10.70;99.90;;;;;;5037363;28;20028;-71
2022/06/04 04:13:52;;;;;;;24.85;15.20;;;10.80;99.90;;;;;;5036580;28;20022;-71
2022/06/04 04:16:19;;;;;;;26.67;14.75;;;10.90;99.90;;;;;;5036387;28;20025;-71
2022/06/04 04:18:45;;;;;;;27.55;14.43;;;10.80;99.90;;;;;;5036958;28;20028;-70
2022/06/04 04:21:14;;;;;;;26.88;14.60;;;10.90;99.90;;;;;;5037197;28;20436;-71
2022/06/04 04:23:40;;;;;;;34.60;14.68;;;10.90;99.90;;;;;;5036770;28;20033;-71
2022/06/04 04:26:08;;;;;;;25.02;15.13;;;10.90;99.90;;;;;;5037202;28;20025;-72
2022/06/04 04:28:34;;;;;;;25.52;14.70;;;10.80;99.90;;;;;;5037642;28;20021;-71
2022/06/04 04:31:01;;;;;;;24.92;14.50;;;10.70;99.90;;;;;;5037315;28;20340;-71
2022/06/04 04:33:27;;;;;;;22.88;14.45;;;10.70;99.90;;;;;;5037071;28;20022;-71
2022/06/04 04:35:52;;;;;;;26.67;14.15;;;10.80;99.90;;;;;;5037332;28;20021;-72
2022/06/04 04:38:21;;;;;;;23.48;14.45;;;10.80;99.90;;;;;;5038073;28;20080;-72
2022/06/04 04:40:47;;;;;;;29.75;14.73;;;10.80;99.90;;;;;;5043761;28;20018;-71
2022/06/04 04:43:13;;;;;;;27.13;15.18;;;10.90;99.90;;;;;;5036006;28;20069;-71
2022/06/04 04:45:39;;;;;;;26.42;14.45;;;10.90;99.90;;;;;;5036435;28;20029;-71
2022/06/04 04:48:05;;;;;;;27.52;14.85;;;10.90;99.90;;;;;;5037136;28;20447;-71
2022/06/04 04:50:35;;;;;;;26.60;15.40;;;10.90;99.90;;;;;;5036220;28;20044;-71
2022/06/04 04:53:03;;;;;;;27.85;14.93;;;11.00;99.90;;;;;;5035764;28;20022;-70
2022/06/04 04:55:29;;;;;;;25.38;13.90;;;11.00;99.90;;;;;;5035855;28;20027;-71
2022/06/04 04:57:55;;;;;;;20.20;13.82;;;11.10;99.90;;;;;;5036144;28;20026;-72
2022/06/04 05:00:21;;;;;;;23.17;13.20;;;11.20;99.90;;;;;;5018283;28;20049;-71
2022/06/04 05:02:47;;;;;;;21.58;14.73;;;11.20;99.90;;;;;;5036606;28;20439;-71
2022/06/04 05:05:13;;;;;;;23.10;13.30;;;11.30;99.90;;;;;;5036124;28;20053;-72
2022/06/04 05:07:40;;;;;;;30.67;14.60;;;11.40;99.90;;;;;;5035881;28;20030;-71
2022/06/04 05:10:08;;;;;;;26.85;13.70;;;11.50;99.90;;;;;;5034808;28;20384;-71
2022/06/04 05:12:34;;;;;;;21.88;12.18;;;11.50;99.90;;;;;;5018100;28;20025;-71
2022/06/04 05:15:00;;;;;;;20.33;12.68;;;11.60;99.90;;;;;;5018321;28;20032;-71
2022/06/04 05:17:25;;;;;;;24.83;14.15;;;11.70;99.90;;;;;;5035435;28;20026;-72
2022/06/04 05:19:51;;;;;;;21.92;13.57;;;11.70;99.90;;;;;;5017935;28;20033;-71
2022/06/04 05:22:17;;;;;;;28.25;13.82;;;11.70;99.90;;;;;;5035375;28;20026;-72
2022/06/04 05:24:45;;;;;;;26.10;12.50;;;11.70;99.90;;;;;;5018029;28;20036;-71
2022/06/04 05:27:11;;;;;;;23.92;14.25;;;11.80;99.90;;;;;;5035528;28;20029;-72
2022/06/04 05:29:37;;;;;;;20.67;12.35;;;11.90;99.90;;;;;;5035623;28;20505;-72
2022/06/04 05:32:04;;;;;;;24.33;13.35;;;11.90;99.90;;;;;;5035974;28;20057;-72
2022/06/04 05:34:31;;;;;;;20.45;13.43;;;12.00;99.90;;;;;;5018159;28;20025;-72
2022/06/04 05:36:58;;;;;;;20.85;12.00;;;12.10;99.90;;;;;;5036150;28;20017;-72
2022/06/04 05:39:24;;;;;;;21.50;12.93;;;12.20;99.90;;;;;;5035111;28;20029;-71
2022/06/04 05:41:51;;;;;;;24.50;12.90;;;12.30;99.90;;;;;;5035744;28;20029;-71
2022/06/04 05:44:18;;;;;;;25.40;13.38;;;12.40;99.90;;;;;;5050689;22;20463;-48
2022/06/04 05:46:44;;;;;;;29.90;13.57;;;12.40;99.90;;;;;;5053223;28;20032;-49
2022/06/04 05:49:11;;;;;;;23.00;12.90;;;12.50;99.90;;;;;;5053455;28;20017;-50
2022/06/04 05:51:40;;;;;;;27.73;14.07;;;12.60;99.90;;;;;;5053393;28;20128;-52
2022/06/04 05:54:06;;;;;;;25.60;13.50;;;12.70;99.90;;;;;;5052859;28;20508;-49
2022/06/04 05:56:35;;;;;;;23.23;13.05;;;12.90;99.90;;;;;;5053555;28;20122;-51
2022/06/04 05:59:04;;;;;;;24.00;12.95;;;12.90;99.90;;;;;;5052996;28;20083;-49
2022/06/04 06:01:31;;;;;;;22.40;13.23;;;13.00;99.90;;;;;;5034918;28;20021;-51
2022/06/04 06:03:58;;;;;;;21.10;13.05;;;13.20;99.90;;;;;;5052746;28;20391;-47
2022/06/04 06:06:26;;;;;;;18.88;12.02;;;13.20;99.90;;;;;;5053307;28;20030;-47
2022/06/04 06:08:53;;;;;;;18.83;12.45;;;13.20;99.90;;;;;;5053098;28;20028;-51
2022/06/04 06:11:19;;;;;;;18.98;12.05;;;13.20;99.90;;;;;;5053101;28;20032;-48
2022/06/04 06:13:47;;;;;;;21.25;12.40;;;13.30;99.90;;;;;;5052883;28;20025;-49
2022/06/04 06:16:16;;;;;;;18.63;11.90;;;13.30;99.90;;;;;;5053025;28;20021;-48
2022/06/04 06:18:42;;;;;;;18.70;11.52;;;13.50;99.90;;;;;;5053268;28;20389;-46
2022/06/04 06:21:17;;;;;;;19.95;12.27;;;13.60;99.90;;;;;;5052543;28;20104;-50
2022/06/04 06:23:43;;;;;;;22.15;11.30;;;13.70;99.90;;;;;;5052942;28;20478;-50
2022/06/04 06:26:15;;;;;;;15.95;10.77;;;13.80;99.90;;;;;;5053012;28;20047;-49
2022/06/04 06:28:41;;;;;;;18.05;10.98;;;13.90;99.90;;;;;;5052882;28;20021;-49
2022/06/04 06:31:10;;;;;;;15.63;11.13;;;13.90;99.90;;;;;;5052547;28;20029;-51
2022/06/04 06:33:35;;;;;;;18.92;11.20;;;14.00;99.90;;;;;;5053079;28;20024;-48
2022/06/04 06:36:07;;;;;;;17.92;11.23;;;14.00;99.90;;;;;;5052988;28;20048;-53
2022/06/04 06:38:33;;;;;;;24.13;11.75;;;14.00;99.90;;;;;;5052793;28;20033;-50
2022/06/04 06:40:59;;;;;;;18.40;11.73;;;14.00;99.90;;;;;;5053195;28;20110;-49
2022/06/04 06:43:36;;;;;;;18.50;11.15;;;14.00;99.90;;;;;;5034501;28;20033;-53
2022/06/04 06:46:10;;;;;;;20.48;12.10;;;14.00;99.90;;;;;;5052991;28;20048;-54
2022/06/04 06:48:38;;;;;;;18.42;11.43;;;14.00;99.90;;;;;;5053026;28;20108;-50
2022/06/04 06:51:12;;;;;;;17.58;11.52;;;14.00;99.90;;;;;;5052527;28;20033;-51
2022/06/04 06:53:37;;;;;;;15.73;10.35;;;14.10;99.90;;;;;;5052769;28;20033;-50
2022/06/04 06:56:16;;;;;;;18.95;11.90;;;14.20;99.90;;;;;;5052799;28;20382;-48
2022/06/04 06:58:42;;;;;;;27.63;12.60;;;14.30;99.90;;;;;;5052843;28;20382;-49
2022/06/04 07:01:08;;;;;;;19.80;13.00;;;14.30;99.90;;;;;;5052774;28;20033;-49
2022/06/04 07:03:35;;;;;;;23.40;12.05;;;14.40;99.90;;;;;;5052415;28;20079;-48
2022/06/04 07:06:01;;;;;;;21.00;13.25;;;14.40;99.90;;;;;;5052609;28;20024;-48
2022/06/04 07:08:27;;;;;;;22.58;13.20;;;14.30;99.90;;;;;;5052561;28;20075;-49
2022/06/04 07:10:53;;;;;;;22.23;12.55;;;14.30;99.90;;;;;;5052329;28;20473;-48
2022/06/04 07:13:19;;;;;;;24.85;13.38;;;14.30;99.90;;;;;;5052149;28;20045;-50
2022/06/04 07:15:44;;;;;;;20.15;12.73;;;14.40;99.90;;;;;;5052207;28;20055;-51
2022/06/04 07:18:11;;;;;;;25.05;11.98;;;14.40;99.90;;;;;;5052413;28;20389;-49
2022/06/04 07:20:38;;;;;;;24.98;13.70;;;14.50;99.90;;;;;;5052573;28;20047;-50
2022/06/04 07:23:04;;;;;;;22.95;13.35;;;14.60;99.90;;;;;;5052156;28;20130;-48
2022/06/04 07:25:30;;;;;;;26.15;13.10;;;14.70;99.90;;;;;;5052373;28;20021;-49
2022/06/04 07:27:55;;;;;;;21.48;12.93;;;14.80;99.90;;;;;;5052743;28;20477;-50
2022/06/04 07:30:21;;;;;;;27.55;13.55;;;15.00;99.90;;;;;;5052339;28;20120;-51
2022/06/04 07:32:47;;;;;;;27.35;13.18;;;15.10;99.90;;;;;;5052050;28;20078;-53
2022/06/04 07:35:12;;;;;;;24.10;13.25;;;15.30;99.90;;;;;;5055626;28;20089;-52
2022/06/04 07:37:38;;;;;;;25.02;14.25;;;15.30;99.90;;;;;;5038259;28;20032;-51
2022/06/04 07:40:04;;;;;;;20.75;13.02;;;15.30;99.90;;;;;;5055601;28;20075;-48
2022/06/04 07:42:30;;;;;;;20.80;12.80;;;15.30;99.90;;;;;;5037667;28;20056;-51
2022/06/04 07:44:57;;;;;;;24.15;13.15;;;15.30;99.90;;;;;;5055328;28;20033;-52
2022/06/04 07:47:24;;;;;;;23.88;13.05;;;15.40;99.90;;;;;;5055370;28;20135;-51
2022/06/04 07:49:50;;;;;;;22.40;13.05;;;15.40;99.90;;;;;;5055781;28;20119;-51
2022/06/04 07:52:16;;;;;;;20.80;12.73;;;15.40;99.90;;;;;;5055148;28;20057;-50
2022/06/04 07:54:42;;;;;;;22.27;13.25;;;15.40;99.90;;;;;;5055516;28;20415;-52
2022/06/04 07:57:07;;;;;;;21.33;12.57;;;15.60;99.90;;;;;;5055355;28;20056;-53
2022/06/04 07:59:33;;;;;;;20.30;12.63;;;15.60;99.90;;;;;;5057199;28;20032;-49
2022/06/04 08:01:59;;;;;;;22.15;12.65;;;15.70;99.90;;;;;;5056353;28;20112;-52
2022/06/04 08:04:24;;;;;;;22.13;11.88;;;15.80;99.90;;;;;;5055044;28;20033;-49
2022/06/04 08:06:50;;;;;;;19.42;12.05;;;15.80;99.90;;;;;;5054863;28;20025;-49
2022/06/04 08:09:16;;;;;;;28.17;14.20;;;15.90;99.90;;;;;;5055126;28;20057;-49
2022/06/04 08:11:42;;;;;;;24.75;13.30;;;15.80;99.90;;;;;;5054860;28;20032;-48
2022/06/04 08:14:21;;;;;;;17.35;12.88;;;15.90;99.90;;;;;;5054930;28;20036;-47
2022/06/04 08:16:55;;;;;;;18.45;12.30;;;15.90;99.90;;;;;;5055146;28;20048;-50
2022/06/04 08:19:23;;;;;;;19.85;11.32;;;16.10;99.90;;;;;;5054637;28;20021;-52
2022/06/04 08:21:50;;;;;;;20.58;12.05;;;16.20;99.90;;;;;;5054636;28;20084;-48
2022/06/04 08:24:18;;;;;;;18.25;12.63;;;16.30;99.90;;;;;;5054996;28;20025;-53
2022/06/04 08:26:46;;;;;;;19.65;10.88;;;16.30;99.90;;;;;;5055076;28;20021;-50
2022/06/04 08:29:13;;;;;;;17.55;11.07;;;16.40;99.90;;;;;;5054818;28;20044;-48
2022/06/04 08:31:39;;;;;;;16.90;11.35;;;16.50;99.90;;;;;;5054501;28;20024;-50
2022/06/04 08:34:05;;;;;;;14.40;10.60;;;16.60;99.90;;;;;;5036542;28;20516;-48
2022/06/04 08:36:32;;;;;;;19.38;10.15;;;16.60;99.90;;;;;;5054467;28;20071;-49
2022/06/04 08:38:57;;;;;;;19.42;10.63;;;16.70;99.90;;;;;;5055082;28;20104;-50
2022/06/04 08:41:57;;;;;;;20.13;11.43;;;16.80;99.90;;;;;;5034371;28;20119;-52
2022/06/04 08:44:29;;;;;;;15.82;10.15;;;16.90;99.90;;;;;;5051381;28;20090;-50
2022/06/04 08:47:10;;;;;;;14.77;9.82;;;17.10;99.90;;;;;;5054736;28;20033;-48
2022/06/04 08:50:01;;;;;;;17.15;10.05;;;17.10;99.90;;;;;;5036360;28;20056;-49
2022/06/04 08:52:32;;;;;;;17.30;10.15;;;17.20;99.90;;;;;;5054309;28;20032;-51
2022/06/04 08:58:07;;;;;;;16.90;9.88;;;17.30;99.90;;;;;;5054781;28;20079;-51
2022/06/04 09:00:43;;;;;;;16.13;9.90;;;17.40;99.90;;;;;;5054268;28;20020;-50
2022/06/04 09:03:13;;;;;;;18.48;10.57;;;17.50;99.90;;;;;;5053182;28;20044;-51
2022/06/04 09:06:03;;;;;;;18.00;10.90;;;17.60;99.90;;;;;;5054336;28;20481;-48
2022/06/04 09:08:39;;;;;;;24.83;12.27;;;17.70;99.90;;;;;;5054086;28;20036;-50
2022/06/04 09:11:11;;;;;;;16.08;11.38;;;17.70;99.90;;;;;;5054097;28;20025;-53
2022/06/04 09:13:48;;;;;;;16.30;10.38;;;17.80;99.90;;;;;;5054071;28;20017;-48
2022/06/04 09:16:46;;;;;;;15.20;9.65;;;17.80;99.90;;;;;;5053989;28;20142;-52
2022/06/04 09:19:22;;;;;;;15.90;9.77;;;17.90;99.90;;;;;;5053511;28;20029;-48
2022/06/04 09:21:49;;;;;;;14.90;9.45;;;17.90;99.90;;;;;;5053802;28;20021;-51
2022/06/04 09:24:15;;;;;;;14.35;9.20;;;18.00;99.90;;;;;;5052981;28;20025;-49
2022/06/04 09:27:32;;;;;;;14.73;8.77;;;18.20;99.90;;;;;;5041188;28;20104;-51
2022/06/04 09:30:27;;;;;;;13.43;8.77;;;18.30;99.90;;;;;;5047849;28;20045;-46
2022/06/04 09:33:02;;;;;;;10.95;8.38;;;18.30;99.90;;;;;;5035348;28;20025;-53
2022/06/04 09:35:37;;;;;;;13.32;8.07;;;18.40;99.90;;;;;;5053088;28;20490;-50
2022/06/04 09:38:02;;;;;;;11.38;8.02;;;18.50;99.90;;;;;;5053176;28;20024;-49
2022/06/04 09:40:32;;;;;;;13.63;8.57;;;18.50;99.90;;;;;;5044624;28;20446;-48
2022/06/04 09:43:15;;;;;;;10.60;7.38;;;18.50;99.90;;;;;;5032965;28;20100;-49
2022/06/04 09:45:41;;;;;;;12.50;7.65;;;18.60;99.90;;;;;;5033043;28;20029;-48
2022/06/04 09:48:24;;;;;;;11.20;7.18;;;18.70;99.90;;;;;;5015171;28;20483;-48
2022/06/04 09:51:00;;;;;;;9.98;7.30;;;18.80;99.90;;;;;;5033065;28;20120;-49
2022/06/04 09:53:29;;;;;;;8.20;6.45;;;19.00;99.90;;;;;;5032218;28;20160;-46
2022/06/04 09:56:09;;;;;;;11.35;7.45;;;19.10;99.90;;;;;;5032491;28;20026;-47
2022/06/04 09:58:38;;;;;;;9.52;6.60;;;19.10;99.90;;;;;;5033198;28;20108;-50
2022/06/04 10:01:23;;;;;;;8.40;6.53;;;19.00;99.90;;;;;;5033025;28;20029;-48
2022/06/04 10:04:00;;;;;;;6.53;5.13;;;19.10;99.90;;;;;;5033235;28;20475;-51
2022/06/04 10:06:28;;;;;;;7.60;5.07;;;19.10;99.90;;;;;;5033054;28;20091;-50
2022/06/04 10:11:57;;;;;;;6.13;5.15;;;19.20;99.90;;;;;;5033068;28;20056;-51
2022/06/04 10:14:38;;;;;;;7.15;4.93;;;19.20;99.90;;;;;;5033443;28;20524;-52
2022/06/04 10:17:07;;;;;;;8.20;5.45;;;19.30;99.90;;;;;;5033064;28;20053;-49
2022/06/04 10:19:34;;;;;;;9.38;5.25;;;19.30;99.90;;;;;;5032887;28;20080;-51
2022/06/04 10:22:13;;;;;;;6.97;4.40;;;19.40;99.90;;;;;;5033293;28;20040;-48
2022/06/04 10:24:54;;;;;;;5.97;4.50;;;19.40;99.90;;;;;;5033232;28;20030;-54
2022/06/04 10:27:23;;;;;;;6.55;4.88;;;19.50;99.90;;;;;;5033055;28;20031;-48
2022/06/04 10:30:12;;;;;;;9.48;4.28;;;19.50;99.90;;;;;;5030338;28;20040;-48
2022/06/04 10:33:16;;;;;;;5.13;3.35;;;19.60;99.90;;;;;;5053140;28;20103;-51
2022/06/04 10:36:01;;;;;;;9.38;3.80;;;19.70;99.90;;;;;;5033823;28;20402;-46
2022/06/04 10:38:32;;;;;;;5.00;3.42;;;19.70;99.90;;;;;;5036935;28;20044;-45
2022/06/04 10:41:12;;;;;;;5.63;3.50;;;19.70;99.90;;;;;;5057717;28;20025;-46
2022/06/04 10:44:14;;;;;;;6.50;3.90;;;19.80;99.90;;;;;;5053716;28;20421;-47
2022/06/04 10:46:48;;;;;;;4.60;4.13;;;20.00;99.90;;;;;;5053561;28;20036;-50
2022/06/04 10:49:14;;;;;;;6.20;3.70;;;20.10;99.90;;;;;;5052425;28;20025;-47
2022/06/04 10:52:01;;;;;;;7.65;4.38;;;20.20;99.90;;;;;;5051431;28;20036;-48
2022/06/04 10:54:38;;;;;;;8.20;4.35;;;20.20;99.90;;;;;;5043255;28;20096;-50
2022/06/04 10:57:28;;;;;;;6.63;4.00;;;20.20;99.90;;;;;;5032368;28;20473;-47
2022/06/04 11:00:09;;;;;;;6.10;4.30;;;20.10;99.90;;;;;;5032741;28;20026;-50
2022/06/04 11:02:45;;;;;;;8.53;5.63;;;20.10;99.90;;;;;;5032380;28;20033;-52
2022/06/04 11:05:33;;;;;;;5.03;3.95;;;20.20;99.90;;;;;;5038850;28;20309;-48
2022/06/04 11:07:58;;;;;;;11.10;7.38;;;20.30;99.90;;;;;;5042428;28;20033;-49
2022/06/04 11:10:39;;;;;;;9.23;5.03;;;20.30;99.90;;;;;;5053296;28;20489;-50
2022/06/04 11:13:15;;;;;;;6.25;3.47;;;20.30;99.90;;;;;;5049863;28;20120;-49
2022/06/04 11:16:08;;;;;;;5.80;4.03;;;20.40;99.90;;;;;;5052129;28;20560;-50
2022/06/04 11:19:03;;;;;;;8.20;5.32;;;20.50;99.90;;;;;;5054499;28;20021;-51
2022/06/04 11:21:40;;;;;;;9.50;6.22;;;20.70;99.90;;;;;;5048801;28;20417;-48
2022/06/04 11:24:20;;;;;;;9.20;6.07;;;20.80;99.90;;;;;;5036253;28;20382;-51
2022/06/04 11:27:14;;;;;;;7.32;4.78;;;20.80;99.90;;;;;;5022955;28;20034;-52
2022/06/04 11:29:40;;;;;;;7.95;5.40;;;20.80;99.90;;;;;;4997256;28;20037;-51
2022/06/04 11:32:29;;;;;;;9.50;6.70;;;20.80;99.90;;;;;;5035876;28;20113;-50
2022/06/04 11:35:14;;;;;;;7.90;5.55;;;20.90;99.90;;;;;;5018495;28;20113;-48
2022/06/04 11:37:54;;;;;;;7.05;5.18;;;21.00;99.90;;;;;;5036036;28;20014;-52
2022/06/04 11:40:30;;;;;;;9.07;5.80;;;21.20;99.90;;;;;;5035895;28;20100;-50
2022/06/04 11:43:08;;;;;;;9.70;5.70;;;21.20;99.90;;;;;;5035545;28;20035;-50
2022/06/04 11:45:46;;;;;;;12.85;5.85;;;21.20;99.90;;;;;;5063835;22;20050;-71
2022/06/04 11:48:50;;;;;;;6.25;5.13;;;21.20;99.90;;;;;;5036433;28;20041;-73
2022/06/04 11:51:43;;;;;;;7.93;5.60;;;21.00;99.90;;;;;;5020328;28;20041;-73
2022/06/04 11:54:24;;;;;;;12.93;7.22;;;21.10;99.90;;;;;;5035716;28;20064;-73
2022/06/04 11:57:14;;;;;;;9.48;5.72;;;21.10;99.90;;;;;;5035552;28;20045;-73
2022/06/04 11:59:51;;;;;;;6.22;4.95;;;21.10;99.90;;;;;;5035087;28;20041;-73
2022/06/04 12:02:24;;;;;;;9.40;5.40;;;21.00;99.90;;;;;;5046845;28;20025;-74
2022/06/04 12:05:05;;;;;;;9.30;5.15;;;21.10;99.90;;;;;;5041892;28;20051;-74
2022/06/04 12:07:41;;;;;;;8.80;6.00;;;21.20;99.90;;;;;;5043723;28;20390;-74
2022/06/04 12:10:16;;;;;;;7.30;5.30;;;21.30;99.90;;;;;;5035277;28;20087;-73
2022/06/04 12:12:51;;;;;;;8.27;5.63;;;21.30;99.90;;;;;;5035211;28;20029;-73
2022/06/04 12:15:38;;;;;;;6.70;5.32;;;21.20;99.90;;;;;;5034860;28;20467;-72
2022/06/04 12:18:27;;;;;;;7.70;5.25;;;21.20;99.90;;;;;;5034884;28;20018;-73
2022/06/04 12:24:17;;;;;;;8.38;4.50;;;21.00;99.90;;;;;;5038970;28;20048;-72
2022/06/04 12:26:48;;;;;;;8.13;5.45;;;21.30;99.90;;;;;;5035786;28;20060;-73
2022/06/04 12:29:34;;;;;;;26.67;17.10;;;21.40;99.90;;;;;;5042223;28;20028;-73
2022/06/04 12:32:06;;;;;;;10.60;8.02;;;21.40;99.90;;;;;;5042502;28;20469;-74
2022/06/04 12:34:39;;;;;;;10.38;7.43;;;21.50;99.90;;;;;;5041767;28;20021;-72
2022/06/04 12:37:20;;;;;;;8.00;5.72;;;21.60;99.90;;;;;;5044235;28;20018;-74
2022/06/04 12:39:46;;;;;;;6.55;5.07;;;21.50;99.90;;;;;;5027337;28;20080;-73
2022/06/04 12:42:13;;;;;;;7.05;4.75;;;21.50;99.90;;;;;;5048871;28;20037;-73
2022/06/04 12:44:41;;;;;;;9.60;5.50;;;21.50;99.90;;;;;;5025902;28;20033;-75
2022/06/04 12:47:20;;;;;;;8.23;5.88;;;21.60;99.90;;;;;;5046241;28;20025;-73
2022/06/04 12:49:56;;;;;;;10.57;5.40;;;21.70;99.90;;;;;;5044396;28;20022;-73
2022/06/04 12:52:44;;;;;;;9.13;4.45;;;21.80;99.90;;;;;;5043560;28;20029;-74
2022/06/04 12:55:17;;;;;;;5.60;4.60;;;21.80;99.90;;;;;;5034536;28;20022;-73
2022/06/04 12:57:48;;;;;;;9.60;4.75;;;21.80;99.90;;;;;;5034125;28;20041;-72
2022/06/04 13:00:15;;;;;;;7.90;5.30;;;21.80;99.90;;;;;;5034224;28;20483;-73
2022/06/04 13:02:42;;;;;;;7.65;4.80;;;21.80;99.90;;;;;;5038393;28;20037;-73
2022/06/04 13:05:19;;;;;;;6.97;4.93;;;21.90;99.90;;;;;;5045270;28;20376;-73
2022/06/04 13:07:56;;;;;;;6.40;4.43;;;22.00;99.90;;;;;;5044868;28;20104;-74
2022/06/04 13:10:37;;;;;;;7.47;4.63;;;22.10;99.90;;;;;;5043578;28;20038;-72
2022/06/04 13:13:18;;;;;;;6.80;4.13;;;22.10;99.90;;;;;;5036045;28;20463;-73
2022/06/04 13:15:52;;;;;;;5.93;4.75;;;22.20;99.90;;;;;;5042976;28;20025;-74
2022/06/04 13:18:33;;;;;;;5.82;4.80;;;22.30;99.90;;;;;;5047190;28;20136;-74